sensor_id;sensor_type;location;lat;lon;timestamp;temperature;humidity
52245;DHT22;55759;51.586;-1.758;2024-03-29T00:00:37;5.60;89.50
52245;DHT22;55759;51.586;-1.758;2024-03-29T00:03:03;5.60;89.60
52245;DHT22;55759;51.586;-1.758;2024-03-29T00:05:29;5.50;89.70
52245;DHT22;55759;51.586;-1.758;2024-03-29T00:07:54;5.50;89.80
52245;DHT22;55759;51.586;-1.758;2024-03-29T00:10:20;5.50;89.90
52245;DHT22;55759;51.586;-1.758;2024-03-29T00:12:45;5.40;89.90
52245;DHT22;55759;51.586;-1.758;2024-03-29T00:15:11;5.40;90.00
52245;DHT22;55759;51.586;-1.758;2024-03-29T00:17:36;5.40;90.00
52245;DHT22;55759;51.586;-1.758;2024-03-29T00:20:02;5.30;90.00
52245;DHT22;55759;51.586;-1.758;2024-03-29T00:22:29;5.30;90.10
52245;DHT22;55759;51.586;-1.758;2024-03-29T00:24:55;5.30;90.30
52245;DHT22;55759;51.586;-1.758;2024-03-29T00:27:20;5.30;90.30
52245;DHT22;55759;51.586;-1.758;2024-03-29T00:29:47;5.30;90.30
52245;DHT22;55759;51.586;-1.758;2024-03-29T00:32:14;5.20;90.30
52245;DHT22;55759;51.586;-1.758;2024-03-29T00:34:39;5.20;90.30
52245;DHT22;55759;51.586;-1.758;2024-03-29T00:37:05;5.10;90.30
52245;DHT22;55759;51.586;-1.758;2024-03-29T00:39:30;5.10;90.40
52245;DHT22;55759;51.586;-1.758;2024-03-29T00:41:56;5.10;90.50
52245;DHT22;55759;51.586;-1.758;2024-03-29T00:44:22;5.00;90.50
52245;DHT22;55759;51.586;-1.758;2024-03-29T00:46:47;5.00;90.50
52245;DHT22;55759;51.586;-1.758;2024-03-29T00:49:13;5.00;90.60
52245;DHT22;55759;51.586;-1.758;2024-03-29T00:51:38;5.00;90.60
52245;DHT22;55759;51.586;-1.758;2024-03-29T00:54:05;5.00;90.70
52245;DHT22;55759;51.586;-1.758;2024-03-29T00:56:30;5.00;90.80
52245;DHT22;55759;51.586;-1.758;2024-03-29T00:58:56;5.00;90.70
52245;DHT22;55759;51.586;-1.758;2024-03-29T01:01:21;4.90;90.80
52245;DHT22;55759;51.586;-1.758;2024-03-29T01:03:47;4.90;90.80
52245;DHT22;55759;51.586;-1.758;2024-03-29T01:06:15;4.90;90.90
52245;DHT22;55759;51.586;-1.758;2024-03-29T01:08:43;4.90;90.90
52245;DHT22;55759;51.586;-1.758;2024-03-29T01:11:09;5.00;90.90
52245;DHT22;55759;51.586;-1.758;2024-03-29T01:13:37;4.90;90.90
52245;DHT22;55759;51.586;-1.758;2024-03-29T01:16:05;4.90;90.80
52245;DHT22;55759;51.586;-1.758;2024-03-29T01:18:31;4.90;90.90
52245;DHT22;55759;51.586;-1.758;2024-03-29T01:20:58;5.00;90.90
52245;DHT22;55759;51.586;-1.758;2024-03-29T01:23:23;5.00;91.00
52245;DHT22;55759;51.586;-1.758;2024-03-29T01:25:49;5.10;91.00
52245;DHT22;55759;51.586;-1.758;2024-03-29T01:28:15;5.10;91.00
52245;DHT22;55759;51.586;-1.758;2024-03-29T01:30:50;5.10;91.00
52245;DHT22;55759;51.586;-1.758;2024-03-29T01:33:16;5.10;91.00
52245;DHT22;55759;51.586;-1.758;2024-03-29T01:35:48;5.10;91.00
52245;DHT22;55759;51.586;-1.758;2024-03-29T01:38:17;5.10;91.00
52245;DHT22;55759;51.586;-1.758;2024-03-29T01:40:45;5.10;91.10
52245;DHT22;55759;51.586;-1.758;2024-03-29T01:43:11;5.10;91.30
52245;DHT22;55759;51.586;-1.758;2024-03-29T01:45:47;5.20;91.60
52245;DHT22;55759;51.586;-1.758;2024-03-29T01:48:17;5.40;91.70
52245;DHT22;55759;51.586;-1.758;2024-03-29T01:51:05;5.50;91.70
52245;DHT22;55759;51.586;-1.758;2024-03-29T01:53:31;5.70;91.70
52245;DHT22;55759;51.586;-1.758;2024-03-29T01:56:03;5.80;91.70
52245;DHT22;55759;51.586;-1.758;2024-03-29T01:58:38;5.90;91.70
52245;DHT22;55759;51.586;-1.758;2024-03-29T02:01:11;6.00;91.70
52245;DHT22;55759;51.586;-1.758;2024-03-29T02:03:43;6.10;91.70
52245;DHT22;55759;51.586;-1.758;2024-03-29T02:06:18;6.10;91.70
52245;DHT22;55759;51.586;-1.758;2024-03-29T02:09:07;6.20;91.70
52245;DHT22;55759;51.586;-1.758;2024-03-29T02:11:37;6.20;91.70
52245;DHT22;55759;51.586;-1.758;2024-03-29T02:17:24;6.20;91.50
52245;DHT22;55759;51.586;-1.758;2024-03-29T02:19:50;6.20;91.50
52245;DHT22;55759;51.586;-1.758;2024-03-29T02:22:15;6.20;91.50
52245;DHT22;55759;51.586;-1.758;2024-03-29T02:24:43;6.30;91.50
52245;DHT22;55759;51.586;-1.758;2024-03-29T02:27:31;6.30;91.40
52245;DHT22;55759;51.586;-1.758;2024-03-29T02:30:29;6.30;91.40
52245;DHT22;55759;51.586;-1.758;2024-03-29T02:33:20;6.40;91.30
52245;DHT22;55759;51.586;-1.758;2024-03-29T02:36:00;6.30;91.10
52245;DHT22;55759;51.586;-1.758;2024-03-29T02:38:28;6.30;91.00
52245;DHT22;55759;51.586;-1.758;2024-03-29T02:41:02;6.20;91.10
52245;DHT22;55759;51.586;-1.758;2024-03-29T02:43:28;6.20;91.20
52245;DHT22;55759;51.586;-1.758;2024-03-29T02:45:56;6.20;91.20
52245;DHT22;55759;51.586;-1.758;2024-03-29T02:48:32;6.20;91.20
52245;DHT22;55759;51.586;-1.758;2024-03-29T02:50:58;6.10;91.20
52245;DHT22;55759;51.586;-1.758;2024-03-29T02:53:30;6.10;91.20
52245;DHT22;55759;51.586;-1.758;2024-03-29T02:55:55;6.10;91.20
52245;DHT22;55759;51.586;-1.758;2024-03-29T02:58:30;6.10;91.40
52245;DHT22;55759;51.586;-1.758;2024-03-29T03:01:04;6.00;91.70
52245;DHT22;55759;51.586;-1.758;2024-03-29T03:03:39;6.10;91.80
52245;DHT22;55759;51.586;-1.758;2024-03-29T03:06:05;6.20;92.00
52245;DHT22;55759;51.586;-1.758;2024-03-29T03:08:34;6.20;92.10
52245;DHT22;55759;51.586;-1.758;2024-03-29T03:11:18;6.30;92.10
52245;DHT22;55759;51.586;-1.758;2024-03-29T03:13:44;6.40;92.20
52245;DHT22;55759;51.586;-1.758;2024-03-29T03:16:18;6.40;92.20
52245;DHT22;55759;51.586;-1.758;2024-03-29T03:27:33;6.60;92.00
52245;DHT22;55759;51.586;-1.758;2024-03-29T03:29:58;6.60;92.00
52245;DHT22;55759;51.586;-1.758;2024-03-29T03:32:30;6.60;92.00
52245;DHT22;55759;51.586;-1.758;2024-03-29T03:34:59;6.60;92.00
52245;DHT22;55759;51.586;-1.758;2024-03-29T03:37:27;6.70;92.00
52245;DHT22;55759;51.586;-1.758;2024-03-29T03:42:59;6.70;91.90
52245;DHT22;55759;51.586;-1.758;2024-03-29T03:45:24;6.80;91.90
52245;DHT22;55759;51.586;-1.758;2024-03-29T03:47:52;6.80;91.90
52245;DHT22;55759;51.586;-1.758;2024-03-29T03:50:28;6.80;91.90
52245;DHT22;55759;51.586;-1.758;2024-03-29T03:53:02;6.90;91.80
52245;DHT22;55759;51.586;-1.758;2024-03-29T03:55:43;6.90;91.80
52245;DHT22;55759;51.586;-1.758;2024-03-29T03:58:36;6.90;91.70
52245;DHT22;55759;51.586;-1.758;2024-03-29T04:01:17;6.90;91.70
52245;DHT22;55759;51.586;-1.758;2024-03-29T04:03:56;6.80;91.60
52245;DHT22;55759;51.586;-1.758;2024-03-29T04:06:40;6.90;91.60
52245;DHT22;55759;51.586;-1.758;2024-03-29T04:09:13;6.90;91.70
52245;DHT22;55759;51.586;-1.758;2024-03-29T04:11:51;6.80;91.60
52245;DHT22;55759;51.586;-1.758;2024-03-29T04:14:17;6.80;91.60
52245;DHT22;55759;51.586;-1.758;2024-03-29T04:19:48;6.70;91.50
52245;DHT22;55759;51.586;-1.758;2024-03-29T04:22:13;6.70;91.60
52245;DHT22;55759;51.586;-1.758;2024-03-29T04:27:47;6.70;91.80
52245;DHT22;55759;51.586;-1.758;2024-03-29T04:33:27;6.60;92.00
52245;DHT22;55759;51.586;-1.758;2024-03-29T04:38:27;6.60;92.00
52245;DHT22;55759;51.586;-1.758;2024-03-29T04:40:56;6.60;92.10
52245;DHT22;55759;51.586;-1.758;2024-03-29T04:43:25;6.60;92.10
52245;DHT22;55759;51.586;-1.758;2024-03-29T04:49:15;6.60;92.20
52245;DHT22;55759;51.586;-1.758;2024-03-29T04:51:48;6.60;92.30
52245;DHT22;55759;51.586;-1.758;2024-03-29T04:54:17;6.60;92.30
52245;DHT22;55759;51.586;-1.758;2024-03-29T04:56:43;6.60;92.40
52245;DHT22;55759;51.586;-1.758;2024-03-29T04:59:12;6.60;92.40
52245;DHT22;55759;51.586;-1.758;2024-03-29T05:01:45;6.70;92.50
52245;DHT22;55759;51.586;-1.758;2024-03-29T05:04:18;6.70;92.50
52245;DHT22;55759;51.586;-1.758;2024-03-29T05:06:59;6.70;92.50
52245;DHT22;55759;51.586;-1.758;2024-03-29T05:09:25;6.70;92.60
52245;DHT22;55759;51.586;-1.758;2024-03-29T05:11:54;6.70;92.60
52245;DHT22;55759;51.586;-1.758;2024-03-29T05:14:23;6.70;92.70
52245;DHT22;55759;51.586;-1.758;2024-03-29T05:16:49;6.70;92.70
52245;DHT22;55759;51.586;-1.758;2024-03-29T05:22:24;6.80;92.80
52245;DHT22;55759;51.586;-1.758;2024-03-29T05:24:52;6.80;92.80
52245;DHT22;55759;51.586;-1.758;2024-03-29T05:27:28;6.80;92.80
52245;DHT22;55759;51.586;-1.758;2024-03-29T05:29:54;6.90;92.80
52245;DHT22;55759;51.586;-1.758;2024-03-29T05:32:26;6.90;92.90
52245;DHT22;55759;51.586;-1.758;2024-03-29T05:34:59;6.90;92.80
52245;DHT22;55759;51.586;-1.758;2024-03-29T05:37:28;6.90;92.80
52245;DHT22;55759;51.586;-1.758;2024-03-29T05:39:57;6.90;92.80
52245;DHT22;55759;51.586;-1.758;2024-03-29T05:45:27;6.80;92.70
52245;DHT22;55759;51.586;-1.758;2024-03-29T05:47:56;6.80;92.70
52245;DHT22;55759;51.586;-1.758;2024-03-29T05:50:22;6.90;92.70
52245;DHT22;55759;51.586;-1.758;2024-03-29T05:52:51;6.80;92.70
52245;DHT22;55759;51.586;-1.758;2024-03-29T05:55:17;6.90;92.70
52245;DHT22;55759;51.586;-1.758;2024-03-29T05:57:43;6.90;92.60
52245;DHT22;55759;51.586;-1.758;2024-03-29T06:00:11;7.00;92.60
52245;DHT22;55759;51.586;-1.758;2024-03-29T06:02:37;7.00;92.60
52245;DHT22;55759;51.586;-1.758;2024-03-29T06:05:05;7.00;92.60
52245;DHT22;55759;51.586;-1.758;2024-03-29T06:07:31;7.00;92.50
52245;DHT22;55759;51.586;-1.758;2024-03-29T06:09:58;7.00;92.50
52245;DHT22;55759;51.586;-1.758;2024-03-29T06:15:24;7.10;92.40
52245;DHT22;55759;51.586;-1.758;2024-03-29T06:18:08;7.10;92.40
52245;DHT22;55759;51.586;-1.758;2024-03-29T06:20:36;7.20;92.40
52245;DHT22;55759;51.586;-1.758;2024-03-29T06:23:01;7.30;92.20
52245;DHT22;55759;51.586;-1.758;2024-03-29T06:25:27;7.30;92.10
52245;DHT22;55759;51.586;-1.758;2024-03-29T06:28:13;7.40;92.10
52245;DHT22;55759;51.586;-1.758;2024-03-29T06:30:38;7.40;92.10
52245;DHT22;55759;51.586;-1.758;2024-03-29T06:33:06;7.50;92.10
52245;DHT22;55759;51.586;-1.758;2024-03-29T06:35:36;7.60;92.10
52245;DHT22;55759;51.586;-1.758;2024-03-29T06:38:02;7.60;91.90
52245;DHT22;55759;51.586;-1.758;2024-03-29T06:43:11;7.70;92.00
52245;DHT22;55759;51.586;-1.758;2024-03-29T06:45:44;7.90;91.80
52245;DHT22;55759;51.586;-1.758;2024-03-29T06:48:27;8.10;91.80
52245;DHT22;55759;51.586;-1.758;2024-03-29T06:57:16;8.10;91.10
52245;DHT22;55759;51.586;-1.758;2024-03-29T06:59:58;8.10;90.90
52245;DHT22;55759;51.586;-1.758;2024-03-29T07:08:17;8.20;90.90
52245;DHT22;55759;51.586;-1.758;2024-03-29T07:10:43;8.20;90.90
52245;DHT22;55759;51.586;-1.758;2024-03-29T07:13:09;8.20;91.00
52245;DHT22;55759;51.586;-1.758;2024-03-29T07:15:50;8.20;91.10
52245;DHT22;55759;51.586;-1.758;2024-03-29T07:18:18;8.20;91.00
52245;DHT22;55759;51.586;-1.758;2024-03-29T07:20:53;8.10;91.10
52245;DHT22;55759;51.586;-1.758;2024-03-29T07:23:22;8.10;91.30
52245;DHT22;55759;51.586;-1.758;2024-03-29T07:25:58;8.10;91.40
52245;DHT22;55759;51.586;-1.758;2024-03-29T07:28:27;8.10;91.40
52245;DHT22;55759;51.586;-1.758;2024-03-29T07:30:53;8.10;91.50
52245;DHT22;55759;51.586;-1.758;2024-03-29T07:33:28;8.10;91.50
52245;DHT22;55759;51.586;-1.758;2024-03-29T07:35:54;8.10;91.50
52245;DHT22;55759;51.586;-1.758;2024-03-29T07:38:20;8.10;91.60
52245;DHT22;55759;51.586;-1.758;2024-03-29T07:40:52;8.10;91.60
52245;DHT22;55759;51.586;-1.758;2024-03-29T07:43:21;8.30;91.60
52245;DHT22;55759;51.586;-1.758;2024-03-29T07:45:46;8.30;91.50
52245;DHT22;55759;51.586;-1.758;2024-03-29T07:48:13;8.40;91.30
52245;DHT22;55759;51.586;-1.758;2024-03-29T07:50:39;8.50;91.20
52245;DHT22;55759;51.586;-1.758;2024-03-29T07:53:05;8.50;90.90
52245;DHT22;55759;51.586;-1.758;2024-03-29T07:55:30;8.40;90.90
52245;DHT22;55759;51.586;-1.758;2024-03-29T07:57:56;8.40;90.90
52245;DHT22;55759;51.586;-1.758;2024-03-29T08:00:22;8.30;90.90
52245;DHT22;55759;51.586;-1.758;2024-03-29T08:02:48;8.30;91.10
52245;DHT22;55759;51.586;-1.758;2024-03-29T08:05:18;8.30;91.40
52245;DHT22;55759;51.586;-1.758;2024-03-29T08:07:43;8.40;91.40
52245;DHT22;55759;51.586;-1.758;2024-03-29T08:10:09;8.40;91.30
52245;DHT22;55759;51.586;-1.758;2024-03-29T08:12:35;8.40;91.30
52245;DHT22;55759;51.586;-1.758;2024-03-29T08:15:03;8.40;91.10
52245;DHT22;55759;51.586;-1.758;2024-03-29T08:17:37;8.30;91.00
52245;DHT22;55759;51.586;-1.758;2024-03-29T08:20:03;8.40;91.20
52245;DHT22;55759;51.586;-1.758;2024-03-29T08:22:32;8.40;91.20
52245;DHT22;55759;51.586;-1.758;2024-03-29T08:25:00;8.50;90.90
52245;DHT22;55759;51.586;-1.758;2024-03-29T08:27:28;8.40;90.80
52245;DHT22;55759;51.586;-1.758;2024-03-29T08:29:54;8.40;90.70
52245;DHT22;55759;51.586;-1.758;2024-03-29T08:32:20;8.40;90.70
52245;DHT22;55759;51.586;-1.758;2024-03-29T08:34:45;8.50;90.80
52245;DHT22;55759;51.586;-1.758;2024-03-29T08:37:11;8.50;91.00
52245;DHT22;55759;51.586;-1.758;2024-03-29T08:39:57;8.60;91.20
52245;DHT22;55759;51.586;-1.758;2024-03-29T08:42:29;8.80;91.20
52245;DHT22;55759;51.586;-1.758;2024-03-29T08:45:01;8.90;91.30
52245;DHT22;55759;51.586;-1.758;2024-03-29T08:47:33;9.10;91.00
52245;DHT22;55759;51.586;-1.758;2024-03-29T08:49:59;9.10;90.70
52245;DHT22;55759;51.586;-1.758;2024-03-29T08:52:24;9.20;90.60
52245;DHT22;55759;51.586;-1.758;2024-03-29T08:54:50;9.30;90.40
52245;DHT22;55759;51.586;-1.758;2024-03-29T08:57:15;9.30;90.30
52245;DHT22;55759;51.586;-1.758;2024-03-29T08:59:41;9.40;90.00
52245;DHT22;55759;51.586;-1.758;2024-03-29T09:02:07;9.50;89.20
52245;DHT22;55759;51.586;-1.758;2024-03-29T09:04:32;9.50;88.60
52245;DHT22;55759;51.586;-1.758;2024-03-29T09:07:02;9.60;88.40
52245;DHT22;55759;51.586;-1.758;2024-03-29T09:09:31;9.70;88.60
52245;DHT22;55759;51.586;-1.758;2024-03-29T09:12:07;9.80;88.30
52245;DHT22;55759;51.586;-1.758;2024-03-29T09:14:33;9.90;87.50
52245;DHT22;55759;51.586;-1.758;2024-03-29T09:16:59;10.00;86.80
52245;DHT22;55759;51.586;-1.758;2024-03-29T09:19:27;10.00;86.90
52245;DHT22;55759;51.586;-1.758;2024-03-29T09:21:55;10.00;86.70
52245;DHT22;55759;51.586;-1.758;2024-03-29T09:24:21;10.10;86.50
52245;DHT22;55759;51.586;-1.758;2024-03-29T09:26:50;10.20;86.30
52245;DHT22;55759;51.586;-1.758;2024-03-29T09:29:16;10.40;86.00
52245;DHT22;55759;51.586;-1.758;2024-03-29T09:31:43;10.50;84.70
52245;DHT22;55759;51.586;-1.758;2024-03-29T09:34:08;10.60;85.00
52245;DHT22;55759;51.586;-1.758;2024-03-29T09:36:34;10.70;85.10
52245;DHT22;55759;51.586;-1.758;2024-03-29T09:39:00;10.90;83.50
52245;DHT22;55759;51.586;-1.758;2024-03-29T09:41:25;11.10;82.40
52245;DHT22;55759;51.586;-1.758;2024-03-29T09:43:53;11.40;81.70
52245;DHT22;55759;51.586;-1.758;2024-03-29T09:46:20;11.70;81.90
52245;DHT22;55759;51.586;-1.758;2024-03-29T09:48:46;12.10;79.80
52245;DHT22;55759;51.586;-1.758;2024-03-29T09:51:13;12.40;79.60
52245;DHT22;55759;51.586;-1.758;2024-03-29T09:53:41;12.90;79.10
52245;DHT22;55759;51.586;-1.758;2024-03-29T09:56:07;13.60;77.20
52245;DHT22;55759;51.586;-1.758;2024-03-29T09:58:34;13.80;74.40
52245;DHT22;55759;51.586;-1.758;2024-03-29T10:01:03;14.10;73.60
52245;DHT22;55759;51.586;-1.758;2024-03-29T10:03:29;14.10;72.50
52245;DHT22;55759;51.586;-1.758;2024-03-29T10:05:59;14.20;71.00
52245;DHT22;55759;51.586;-1.758;2024-03-29T10:08:26;14.40;69.50
52245;DHT22;55759;51.586;-1.758;2024-03-29T10:10:52;14.40;69.90
52245;DHT22;55759;51.586;-1.758;2024-03-29T10:13:17;14.50;69.20
52245;DHT22;55759;51.586;-1.758;2024-03-29T10:15:44;14.50;68.10
52245;DHT22;55759;51.586;-1.758;2024-03-29T10:18:14;14.40;67.80
52245;DHT22;55759;51.586;-1.758;2024-03-29T10:20:40;14.60;67.00
52245;DHT22;55759;51.586;-1.758;2024-03-29T10:23:06;14.70;67.50
52245;DHT22;55759;51.586;-1.758;2024-03-29T10:25:32;15.00;68.80
52245;DHT22;55759;51.586;-1.758;2024-03-29T10:28:01;15.10;67.20
52245;DHT22;55759;51.586;-1.758;2024-03-29T10:30:30;15.10;65.60
52245;DHT22;55759;51.586;-1.758;2024-03-29T10:32:56;14.70;65.80
52245;DHT22;55759;51.586;-1.758;2024-03-29T10:35:22;14.30;65.60
52245;DHT22;55759;51.586;-1.758;2024-03-29T10:37:48;14.00;67.20
52245;DHT22;55759;51.586;-1.758;2024-03-29T10:40:13;13.70;67.90
52245;DHT22;55759;51.586;-1.758;2024-03-29T10:42:44;13.40;68.90
52245;DHT22;55759;51.586;-1.758;2024-03-29T10:45:10;13.10;70.20
52245;DHT22;55759;51.586;-1.758;2024-03-29T10:47:36;12.90;70.60
52245;DHT22;55759;51.586;-1.758;2024-03-29T10:50:04;12.60;72.20
52245;DHT22;55759;51.586;-1.758;2024-03-29T10:52:30;12.30;73.30
52245;DHT22;55759;51.586;-1.758;2024-03-29T10:54:56;12.40;74.10
52245;DHT22;55759;51.586;-1.758;2024-03-29T10:57:23;12.60;74.80
52245;DHT22;55759;51.586;-1.758;2024-03-29T11:02:33;13.00;70.10
52245;DHT22;55759;51.586;-1.758;2024-03-29T11:05:00;13.00;70.00
52245;DHT22;55759;51.586;-1.758;2024-03-29T11:07:31;13.00;70.00
52245;DHT22;55759;51.586;-1.758;2024-03-29T11:09:59;13.20;68.90
52245;DHT22;55759;51.586;-1.758;2024-03-29T11:12:26;13.30;69.20
52245;DHT22;55759;51.586;-1.758;2024-03-29T11:14:55;13.50;67.60
52245;DHT22;55759;51.586;-1.758;2024-03-29T11:17:23;13.60;69.40
52245;DHT22;55759;51.586;-1.758;2024-03-29T11:19:48;13.50;68.90
52245;DHT22;55759;51.586;-1.758;2024-03-29T11:22:15;13.70;71.00
52245;DHT22;55759;51.586;-1.758;2024-03-29T11:24:40;14.10;69.50
52245;DHT22;55759;51.586;-1.758;2024-03-29T11:27:08;14.40;67.50
52245;DHT22;55759;51.586;-1.758;2024-03-29T11:29:34;14.90;66.50
52245;DHT22;55759;51.586;-1.758;2024-03-29T11:32:04;15.30;64.30
52245;DHT22;55759;51.586;-1.758;2024-03-29T11:34:30;15.70;62.00
52245;DHT22;55759;51.586;-1.758;2024-03-29T11:37:05;16.10;61.50
52245;DHT22;55759;51.586;-1.758;2024-03-29T11:39:33;16.20;59.40
52245;DHT22;55759;51.586;-1.758;2024-03-29T11:42:00;16.00;59.60
52245;DHT22;55759;51.586;-1.758;2024-03-29T11:44:26;15.20;62.10
52245;DHT22;55759;51.586;-1.758;2024-03-29T11:46:52;14.30;65.60
52245;DHT22;55759;51.586;-1.758;2024-03-29T11:49:22;13.40;69.80
52245;DHT22;55759;51.586;-1.758;2024-03-29T11:51:47;12.50;73.40
52245;DHT22;55759;51.586;-1.758;2024-03-29T11:54:13;11.80;76.40
52245;DHT22;55759;51.586;-1.758;2024-03-29T11:56:42;11.40;79.10
52245;DHT22;55759;51.586;-1.758;2024-03-29T11:59:11;11.20;80.20
52245;DHT22;55759;51.586;-1.758;2024-03-29T12:01:38;11.10;81.60
52245;DHT22;55759;51.586;-1.758;2024-03-29T12:04:06;11.00;82.00
52245;DHT22;55759;51.586;-1.758;2024-03-29T12:06:31;10.80;83.20
52245;DHT22;55759;51.586;-1.758;2024-03-29T12:08:57;10.70;84.40
52245;DHT22;55759;51.586;-1.758;2024-03-29T12:11:22;10.60;84.60
52245;DHT22;55759;51.586;-1.758;2024-03-29T12:13:49;10.50;84.80
52245;DHT22;55759;51.586;-1.758;2024-03-29T12:16:16;10.40;83.70
52245;DHT22;55759;51.586;-1.758;2024-03-29T12:18:46;10.20;83.90
52245;DHT22;55759;51.586;-1.758;2024-03-29T12:21:12;10.50;84.50
52245;DHT22;55759;51.586;-1.758;2024-03-29T12:23:40;11.10;84.10
52245;DHT22;55759;51.586;-1.758;2024-03-29T12:26:12;12.60;81.40
52245;DHT22;55759;51.586;-1.758;2024-03-29T12:28:37;15.10;75.90
52245;DHT22;55759;51.586;-1.758;2024-03-29T12:31:03;17.60;69.70
52245;DHT22;55759;51.586;-1.758;2024-03-29T12:33:29;19.40;60.20
52245;DHT22;55759;51.586;-1.758;2024-03-29T12:35:57;20.30;56.10
52245;DHT22;55759;51.586;-1.758;2024-03-29T12:38:23;21.50;53.60
52245;DHT22;55759;51.586;-1.758;2024-03-29T12:40:49;22.60;48.40
52245;DHT22;55759;51.586;-1.758;2024-03-29T12:43:15;23.60;46.60
52245;DHT22;55759;51.586;-1.758;2024-03-29T12:45:42;24.40;43.50
52245;DHT22;55759;51.586;-1.758;2024-03-29T12:48:15;25.10;40.40
52245;DHT22;55759;51.586;-1.758;2024-03-29T12:50:41;25.80;40.30
52245;DHT22;55759;51.586;-1.758;2024-03-29T12:53:08;26.60;39.90
52245;DHT22;55759;51.586;-1.758;2024-03-29T12:55:33;27.10;37.40
52245;DHT22;55759;51.586;-1.758;2024-03-29T12:58:01;27.10;38.80
52245;DHT22;55759;51.586;-1.758;2024-03-29T13:00:29;27.60;36.40
52245;DHT22;55759;51.586;-1.758;2024-03-29T13:02:54;27.80;37.50
52245;DHT22;55759;51.586;-1.758;2024-03-29T13:05:20;28.30;36.20
52245;DHT22;55759;51.586;-1.758;2024-03-29T13:07:49;28.30;34.10
52245;DHT22;55759;51.586;-1.758;2024-03-29T13:10:19;27.10;35.10
52245;DHT22;55759;51.586;-1.758;2024-03-29T13:12:57;26.10;35.40
52245;DHT22;55759;51.586;-1.758;2024-03-29T13:15:23;26.30;36.10
52245;DHT22;55759;51.586;-1.758;2024-03-29T13:20:54;27.60;36.90
52245;DHT22;55759;51.586;-1.758;2024-03-29T13:23:21;28.50;34.30
52245;DHT22;55759;51.586;-1.758;2024-03-29T13:25:50;28.90;32.50
52245;DHT22;55759;51.586;-1.758;2024-03-29T13:28:19;28.60;32.30
52245;DHT22;55759;51.586;-1.758;2024-03-29T13:30:45;28.40;35.10
52245;DHT22;55759;51.586;-1.758;2024-03-29T13:33:13;26.40;33.90
52245;DHT22;55759;51.586;-1.758;2024-03-29T13:35:39;24.10;38.80
52245;DHT22;55759;51.586;-1.758;2024-03-29T13:38:05;24.10;43.30
52245;DHT22;55759;51.586;-1.758;2024-03-29T13:40:31;25.30;37.00
52245;DHT22;55759;51.586;-1.758;2024-03-29T13:42:57;25.90;36.90
52245;DHT22;55759;51.586;-1.758;2024-03-29T13:45:23;26.10;35.50
52245;DHT22;55759;51.586;-1.758;2024-03-29T13:47:51;25.70;36.60
52245;DHT22;55759;51.586;-1.758;2024-03-29T13:50:16;24.60;38.10
52245;DHT22;55759;51.586;-1.758;2024-03-29T13:52:42;24.60;37.60
52245;DHT22;55759;51.586;-1.758;2024-03-29T13:55:08;23.70;39.00
52245;DHT22;55759;51.586;-1.758;2024-03-29T13:57:34;22.50;42.70
52245;DHT22;55759;51.586;-1.758;2024-03-29T13:59:59;21.50;42.50
52245;DHT22;55759;51.586;-1.758;2024-03-29T14:02:25;22.10;43.90
52245;DHT22;55759;51.586;-1.758;2024-03-29T14:04:54;22.00;40.90
52245;DHT22;55759;51.586;-1.758;2024-03-29T14:07:20;20.70;43.80
52245;DHT22;55759;51.586;-1.758;2024-03-29T14:09:46;20.60;43.30
52245;DHT22;55759;51.586;-1.758;2024-03-29T14:12:11;20.00;44.80
52245;DHT22;55759;51.586;-1.758;2024-03-29T14:14:38;19.30;46.40
52245;DHT22;55759;51.586;-1.758;2024-03-29T14:17:04;20.20;48.20
52245;DHT22;55759;51.586;-1.758;2024-03-29T14:19:35;22.60;42.50
52245;DHT22;55759;51.586;-1.758;2024-03-29T14:22:01;22.20;41.40
52245;DHT22;55759;51.586;-1.758;2024-03-29T14:24:26;22.10;42.30
52245;DHT22;55759;51.586;-1.758;2024-03-29T14:26:52;23.40;40.50
52245;DHT22;55759;51.586;-1.758;2024-03-29T14:29:18;23.20;38.40
52245;DHT22;55759;51.586;-1.758;2024-03-29T14:31:49;21.80;39.80
52245;DHT22;55759;51.586;-1.758;2024-03-29T14:34:16;20.40;42.40
52245;DHT22;55759;51.586;-1.758;2024-03-29T14:36:41;20.40;44.50
52245;DHT22;55759;51.586;-1.758;2024-03-29T14:39:07;20.40;45.30
52245;DHT22;55759;51.586;-1.758;2024-03-29T14:41:32;21.70;44.70
52245;DHT22;55759;51.586;-1.758;2024-03-29T14:44:02;22.70;38.90
52245;DHT22;55759;51.586;-1.758;2024-03-29T14:46:27;22.00;39.30
52245;DHT22;55759;51.586;-1.758;2024-03-29T14:48:53;21.00;42.20
52245;DHT22;55759;51.586;-1.758;2024-03-29T14:51:19;21.90;42.80
52245;DHT22;55759;51.586;-1.758;2024-03-29T14:53:45;23.30;41.40
52245;DHT22;55759;51.586;-1.758;2024-03-29T14:56:17;23.40;39.10
52245;DHT22;55759;51.586;-1.758;2024-03-29T14:58:43;24.60;39.40
52245;DHT22;55759;51.586;-1.758;2024-03-29T15:01:09;25.10;37.40
52245;DHT22;55759;51.586;-1.758;2024-03-29T15:03:34;24.10;36.30
52245;DHT22;55759;51.586;-1.758;2024-03-29T15:06:00;24.60;38.20
52245;DHT22;55759;51.586;-1.758;2024-03-29T15:08:26;24.90;35.30
52245;DHT22;55759;51.586;-1.758;2024-03-29T15:10:58;23.80;37.10
52245;DHT22;55759;51.586;-1.758;2024-03-29T15:13:24;24.20;36.90
52245;DHT22;55759;51.586;-1.758;2024-03-29T15:15:56;24.50;36.40
52245;DHT22;55759;51.586;-1.758;2024-03-29T15:18:22;24.00;36.70
52245;DHT22;55759;51.586;-1.758;2024-03-29T15:20:57;24.70;37.60
52245;DHT22;55759;51.586;-1.758;2024-03-29T15:23:23;25.90;35.70
52245;DHT22;55759;51.586;-1.758;2024-03-29T15:25:52;26.90;34.70
52245;DHT22;55759;51.586;-1.758;2024-03-29T15:28:19;25.40;34.60
52245;DHT22;55759;51.586;-1.758;2024-03-29T15:31:13;23.70;37.40
52245;DHT22;55759;51.586;-1.758;2024-03-29T15:33:41;22.20;38.80
52245;DHT22;55759;51.586;-1.758;2024-03-29T15:36:06;22.30;42.70
52245;DHT22;55759;51.586;-1.758;2024-03-29T15:38:36;24.20;37.60
52245;DHT22;55759;51.586;-1.758;2024-03-29T15:41:01;25.20;38.70
52245;DHT22;55759;51.586;-1.758;2024-03-29T15:43:27;25.10;36.30
52245;DHT22;55759;51.586;-1.758;2024-03-29T15:45:56;25.20;40.40
52245;DHT22;55759;51.586;-1.758;2024-03-29T15:48:22;25.30;36.40
52245;DHT22;55759;51.586;-1.758;2024-03-29T15:50:48;25.60;33.10
52245;DHT22;55759;51.586;-1.758;2024-03-29T15:53:14;24.80;33.50
52245;DHT22;55759;51.586;-1.758;2024-03-29T15:55:40;23.50;36.20
52245;DHT22;55759;51.586;-1.758;2024-03-29T15:58:06;22.40;37.90
52245;DHT22;55759;51.586;-1.758;2024-03-29T16:00:32;21.20;41.60
52245;DHT22;55759;51.586;-1.758;2024-03-29T16:03:02;20.10;43.30
52245;DHT22;55759;51.586;-1.758;2024-03-29T16:05:29;19.10;45.80
52245;DHT22;55759;51.586;-1.758;2024-03-29T16:07:54;18.40;47.00
52245;DHT22;55759;51.586;-1.758;2024-03-29T16:10:20;17.80;52.50
52245;DHT22;55759;51.586;-1.758;2024-03-29T16:12:46;17.40;51.50
52245;DHT22;55759;51.586;-1.758;2024-03-29T16:15:11;17.00;53.90
52245;DHT22;55759;51.586;-1.758;2024-03-29T16:17:37;16.60;53.70
52245;DHT22;55759;51.586;-1.758;2024-03-29T16:20:02;16.30;55.60
52245;DHT22;55759;51.586;-1.758;2024-03-29T16:22:28;16.20;55.00
52245;DHT22;55759;51.586;-1.758;2024-03-29T16:24:53;15.90;55.40
52245;DHT22;55759;51.586;-1.758;2024-03-29T16:27:19;15.70;55.90
52245;DHT22;55759;51.586;-1.758;2024-03-29T16:29:44;15.50;55.60
52245;DHT22;55759;51.586;-1.758;2024-03-29T16:32:10;15.20;55.00